sensor_id;sensor_type;location;lat;lon;timestamp;temperature;humidity
78779;DHT22;68121;52.404;5.318;2023-05-23T00:02:10;14.60;72.30
78779;DHT22;68121;52.404;5.318;2023-05-23T00:04:38;14.60;72.40
78779;DHT22;68121;52.404;5.318;2023-05-23T00:07:04;14.50;72.40
78779;DHT22;68121;52.404;5.318;2023-05-23T00:09:30;14.50;72.50
78779;DHT22;68121;52.404;5.318;2023-05-23T00:11:57;14.40;72.50
78779;DHT22;68121;52.404;5.318;2023-05-23T00:14:23;14.40;72.60
78779;DHT22;68121;52.404;5.318;2023-05-23T00:16:49;14.40;72.70
78779;DHT22;68121;52.404;5.318;2023-05-23T00:19:16;14.40;72.70
78779;DHT22;68121;52.404;5.318;2023-05-23T00:21:45;14.30;72.70
78779;DHT22;68121;52.404;5.318;2023-05-23T00:24:16;14.30;72.70
78779;DHT22;68121;52.404;5.318;2023-05-23T00:26:46;14.30;72.80
78779;DHT22;68121;52.404;5.318;2023-05-23T00:29:12;14.30;73.00
78779;DHT22;68121;52.404;5.318;2023-05-23T00:31:42;14.30;72.90
78779;DHT22;68121;52.404;5.318;2023-05-23T00:34:17;14.30;72.90
78779;DHT22;68121;52.404;5.318;2023-05-23T00:36:43;14.30;72.90
78779;DHT22;68121;52.404;5.318;2023-05-23T00:39:12;14.30;72.90
78779;DHT22;68121;52.404;5.318;2023-05-23T00:41:48;14.30;72.90
78779;DHT22;68121;52.404;5.318;2023-05-23T00:44:14;14.30;73.00
78779;DHT22;68121;52.404;5.318;2023-05-23T00:46:43;14.30;73.10
78779;DHT22;68121;52.404;5.318;2023-05-23T00:49:11;14.20;73.20
78779;DHT22;68121;52.404;5.318;2023-05-23T00:51:37;14.20;73.20
78779;DHT22;68121;52.404;5.318;2023-05-23T00:54:04;14.20;73.20
78779;DHT22;68121;52.404;5.318;2023-05-23T00:56:30;14.20;73.20
78779;DHT22;68121;52.404;5.318;2023-05-23T00:58:57;14.30;73.20
78779;DHT22;68121;52.404;5.318;2023-05-23T01:01:25;14.30;73.20
78779;DHT22;68121;52.404;5.318;2023-05-23T01:03:52;14.30;73.20
78779;DHT22;68121;52.404;5.318;2023-05-23T01:06:19;14.20;73.20
78779;DHT22;68121;52.404;5.318;2023-05-23T01:08:45;14.20;73.20
78779;DHT22;68121;52.404;5.318;2023-05-23T01:11:18;14.20;73.20
78779;DHT22;68121;52.404;5.318;2023-05-23T01:13:53;14.20;73.20
78779;DHT22;68121;52.404;5.318;2023-05-23T01:16:43;14.20;73.20
78779;DHT22;68121;52.404;5.318;2023-05-23T01:19:41;14.10;73.20
78779;DHT22;68121;52.404;5.318;2023-05-23T01:25:10;14.10;73.20
78779;DHT22;68121;52.404;5.318;2023-05-23T01:27:50;14.10;73.30
78779;DHT22;68121;52.404;5.318;2023-05-23T01:30:18;14.10;73.20
78779;DHT22;68121;52.404;5.318;2023-05-23T01:32:47;14.00;73.20
78779;DHT22;68121;52.404;5.318;2023-05-23T01:35:18;14.00;73.30
78779;DHT22;68121;52.404;5.318;2023-05-23T01:37:47;14.00;73.40
78779;DHT22;68121;52.404;5.318;2023-05-23T01:40:13;14.00;73.40
78779;DHT22;68121;52.404;5.318;2023-05-23T01:42:39;14.00;73.40
78779;DHT22;68121;52.404;5.318;2023-05-23T01:45:06;14.00;73.40
78779;DHT22;68121;52.404;5.318;2023-05-23T01:47:32;14.00;73.40
78779;DHT22;68121;52.404;5.318;2023-05-23T01:50:00;14.10;73.50
78779;DHT22;68121;52.404;5.318;2023-05-23T01:52:27;14.10;73.50
78779;DHT22;68121;52.404;5.318;2023-05-23T01:54:54;14.10;73.40
78779;DHT22;68121;52.404;5.318;2023-05-23T01:57:21;14.10;73.40
78779;DHT22;68121;52.404;5.318;2023-05-23T01:59:49;14.10;73.30
78779;DHT22;68121;52.404;5.318;2023-05-23T02:02:15;14.10;73.30
78779;DHT22;68121;52.404;5.318;2023-05-23T02:04:41;14.10;73.20
78779;DHT22;68121;52.404;5.318;2023-05-23T02:07:08;14.20;73.10
78779;DHT22;68121;52.404;5.318;2023-05-23T02:09:34;14.20;73.10
78779;DHT22;68121;52.404;5.318;2023-05-23T02:12:00;14.20;73.00
78779;DHT22;68121;52.404;5.318;2023-05-23T02:14:26;14.20;72.90
78779;DHT22;68121;52.404;5.318;2023-05-23T02:16:53;14.20;72.90
78779;DHT22;68121;52.404;5.318;2023-05-23T02:19:19;14.20;72.90
78779;DHT22;68121;52.404;5.318;2023-05-23T02:21:45;14.20;72.80
78779;DHT22;68121;52.404;5.318;2023-05-23T02:24:11;14.20;72.80
78779;DHT22;68121;52.404;5.318;2023-05-23T02:26:37;14.20;72.80
78779;DHT22;68121;52.404;5.318;2023-05-23T02:29:03;14.20;72.70
78779;DHT22;68121;52.404;5.318;2023-05-23T02:31:30;14.20;72.70
78779;DHT22;68121;52.404;5.318;2023-05-23T02:33:56;14.30;72.60
78779;DHT22;68121;52.404;5.318;2023-05-23T02:36:22;14.30;72.60
78779;DHT22;68121;52.404;5.318;2023-05-23T02:38:48;14.20;72.50
78779;DHT22;68121;52.404;5.318;2023-05-23T02:41:14;14.20;72.50
78779;DHT22;68121;52.404;5.318;2023-05-23T02:43:40;14.20;72.40
78779;DHT22;68121;52.404;5.318;2023-05-23T02:46:06;14.10;72.30
78779;DHT22;68121;52.404;5.318;2023-05-23T02:48:32;14.10;72.30
78779;DHT22;68121;52.404;5.318;2023-05-23T02:50:58;14.10;72.20
78779;DHT22;68121;52.404;5.318;2023-05-23T02:53:24;14.10;72.10
78779;DHT22;68121;52.404;5.318;2023-05-23T02:55:50;14.00;72.10
78779;DHT22;68121;52.404;5.318;2023-05-23T02:58:16;14.00;72.10
78779;DHT22;68121;52.404;5.318;2023-05-23T03:00:42;14.00;72.10
78779;DHT22;68121;52.404;5.318;2023-05-23T03:03:09;14.00;72.10
78779;DHT22;68121;52.404;5.318;2023-05-23T03:05:36;14.00;72.00
78779;DHT22;68121;52.404;5.318;2023-05-23T03:08:02;14.00;72.00
78779;DHT22;68121;52.404;5.318;2023-05-23T03:10:28;13.90;71.90
78779;DHT22;68121;52.404;5.318;2023-05-23T03:12:54;13.90;71.90
78779;DHT22;68121;52.404;5.318;2023-05-23T03:15:20;13.90;71.90
78779;DHT22;68121;52.404;5.318;2023-05-23T03:17:46;13.90;71.90
78779;DHT22;68121;52.404;5.318;2023-05-23T03:20:12;13.90;71.90
78779;DHT22;68121;52.404;5.318;2023-05-23T03:22:39;13.90;71.80
78779;DHT22;68121;52.404;5.318;2023-05-23T03:25:08;13.90;71.80
78779;DHT22;68121;52.404;5.318;2023-05-23T03:27:34;13.80;71.80
78779;DHT22;68121;52.404;5.318;2023-05-23T03:30:02;13.80;71.90
78779;DHT22;68121;52.404;5.318;2023-05-23T03:32:28;13.90;72.00
78779;DHT22;68121;52.404;5.318;2023-05-23T03:34:54;13.90;72.00
78779;DHT22;68121;52.404;5.318;2023-05-23T03:37:20;13.80;72.00
78779;DHT22;68121;52.404;5.318;2023-05-23T03:39:46;13.80;72.00
78779;DHT22;68121;52.404;5.318;2023-05-23T03:42:12;13.80;72.00
78779;DHT22;68121;52.404;5.318;2023-05-23T03:44:38;13.80;72.00
78779;DHT22;68121;52.404;5.318;2023-05-23T03:47:04;13.70;71.90
78779;DHT22;68121;52.404;5.318;2023-05-23T03:49:30;13.70;72.00
78779;DHT22;68121;52.404;5.318;2023-05-23T03:51:56;13.70;72.00
78779;DHT22;68121;52.404;5.318;2023-05-23T03:54:23;13.60;71.90
78779;DHT22;68121;52.404;5.318;2023-05-23T03:56:49;13.60;71.90
78779;DHT22;68121;52.404;5.318;2023-05-23T03:59:15;13.60;72.00
78779;DHT22;68121;52.404;5.318;2023-05-23T04:01:41;13.60;71.90
78779;DHT22;68121;52.404;5.318;2023-05-23T04:04:07;13.60;71.80
78779;DHT22;68121;52.404;5.318;2023-05-23T04:06:33;13.50;71.70
78779;DHT22;68121;52.404;5.318;2023-05-23T04:08:59;13.50;71.70
78779;DHT22;68121;52.404;5.318;2023-05-23T04:11:26;13.50;71.80
78779;DHT22;68121;52.404;5.318;2023-05-23T04:13:52;13.50;71.70
78779;DHT22;68121;52.404;5.318;2023-05-23T04:16:18;13.50;71.60
78779;DHT22;68121;52.404;5.318;2023-05-23T04:18:44;13.40;71.70
78779;DHT22;68121;52.404;5.318;2023-05-23T04:21:12;13.30;71.70
78779;DHT22;68121;52.404;5.318;2023-05-23T04:23:38;13.30;71.70
78779;DHT22;68121;52.404;5.318;2023-05-23T04:26:04;13.30;71.70
78779;DHT22;68121;52.404;5.318;2023-05-23T04:28:30;13.30;71.70
78779;DHT22;68121;52.404;5.318;2023-05-23T04:30:57;13.30;71.60
78779;DHT22;68121;52.404;5.318;2023-05-23T04:33:23;13.20;71.60
78779;DHT22;68121;52.404;5.318;2023-05-23T04:35:49;13.20;71.50
78779;DHT22;68121;52.404;5.318;2023-05-23T04:38:16;13.20;71.40
78779;DHT22;68121;52.404;5.318;2023-05-23T04:40:42;13.10;71.40
78779;DHT22;68121;52.404;5.318;2023-05-23T04:43:08;13.10;71.40
78779;DHT22;68121;52.404;5.318;2023-05-23T04:45:34;13.10;71.10
78779;DHT22;68121;52.404;5.318;2023-05-23T04:48:02;13.10;70.90
78779;DHT22;68121;52.404;5.318;2023-05-23T04:50:28;13.00;70.80
78779;DHT22;68121;52.404;5.318;2023-05-23T04:52:57;13.10;70.70
78779;DHT22;68121;52.404;5.318;2023-05-23T04:55:23;13.10;70.70
78779;DHT22;68121;52.404;5.318;2023-05-23T04:57:49;13.00;70.50
78779;DHT22;68121;52.404;5.318;2023-05-23T05:00:16;13.00;70.30
78779;DHT22;68121;52.404;5.318;2023-05-23T05:02:42;13.00;70.00
78779;DHT22;68121;52.404;5.318;2023-05-23T05:05:09;13.00;70.00
78779;DHT22;68121;52.404;5.318;2023-05-23T05:07:35;13.00;70.00
78779;DHT22;68121;52.404;5.318;2023-05-23T05:10:02;12.90;70.10
78779;DHT22;68121;52.404;5.318;2023-05-23T05:12:28;12.90;70.10
78779;DHT22;68121;52.404;5.318;2023-05-23T05:14:54;12.90;70.00
78779;DHT22;68121;52.404;5.318;2023-05-23T05:17:20;12.90;69.90
78779;DHT22;68121;52.404;5.318;2023-05-23T05:19:46;12.90;69.90
78779;DHT22;68121;52.404;5.318;2023-05-23T05:22:12;12.90;69.90
78779;DHT22;68121;52.404;5.318;2023-05-23T05:24:39;12.90;69.70
78779;DHT22;68121;52.404;5.318;2023-05-23T05:27:06;12.90;69.70
78779;DHT22;68121;52.404;5.318;2023-05-23T05:29:32;12.90;69.60
78779;DHT22;68121;52.404;5.318;2023-05-23T05:31:58;12.80;69.60
78779;DHT22;68121;52.404;5.318;2023-05-23T05:34:28;12.80;69.30
78779;DHT22;68121;52.404;5.318;2023-05-23T05:36:54;12.80;69.20
78779;DHT22;68121;52.404;5.318;2023-05-23T05:39:23;12.70;69.10
78779;DHT22;68121;52.404;5.318;2023-05-23T05:41:50;12.70;69.20
78779;DHT22;68121;52.404;5.318;2023-05-23T05:44:16;12.70;69.30
78779;DHT22;68121;52.404;5.318;2023-05-23T05:46:42;12.70;69.30
78779;DHT22;68121;52.404;5.318;2023-05-23T05:49:08;12.70;69.30
78779;DHT22;68121;52.404;5.318;2023-05-23T05:51:34;12.70;69.30
78779;DHT22;68121;52.404;5.318;2023-05-23T05:54:00;12.70;69.30
78779;DHT22;68121;52.404;5.318;2023-05-23T05:56:26;12.70;69.30
78779;DHT22;68121;52.404;5.318;2023-05-23T05:58:53;12.80;69.30
78779;DHT22;68121;52.404;5.318;2023-05-23T06:01:19;12.80;69.20
78779;DHT22;68121;52.404;5.318;2023-05-23T06:03:45;12.80;69.20
78779;DHT22;68121;52.404;5.318;2023-05-23T06:06:11;12.80;69.30
78779;DHT22;68121;52.404;5.318;2023-05-23T06:08:37;12.80;69.40
78779;DHT22;68121;52.404;5.318;2023-05-23T06:11:04;12.80;69.50
78779;DHT22;68121;52.404;5.318;2023-05-23T06:13:30;12.80;69.60
78779;DHT22;68121;52.404;5.318;2023-05-23T06:15:56;12.80;69.60
78779;DHT22;68121;52.404;5.318;2023-05-23T06:18:23;12.80;69.70
78779;DHT22;68121;52.404;5.318;2023-05-23T06:20:49;12.80;69.90
78779;DHT22;68121;52.404;5.318;2023-05-23T06:23:15;12.80;70.10
78779;DHT22;68121;52.404;5.318;2023-05-23T06:25:41;12.80;70.20
78779;DHT22;68121;52.404;5.318;2023-05-23T06:28:07;12.80;70.30
78779;DHT22;68121;52.404;5.318;2023-05-23T06:30:33;12.80;70.30
78779;DHT22;68121;52.404;5.318;2023-05-23T06:33:00;12.70;70.30
78779;DHT22;68121;52.404;5.318;2023-05-23T06:35:27;12.70;70.20
78779;DHT22;68121;52.404;5.318;2023-05-23T06:37:53;12.50;70.10
78779;DHT22;68121;52.404;5.318;2023-05-23T06:40:19;12.50;70.20
78779;DHT22;68121;52.404;5.318;2023-05-23T06:42:45;12.50;70.20
78779;DHT22;68121;52.404;5.318;2023-05-23T06:45:11;12.50;69.80
78779;DHT22;68121;52.404;5.318;2023-05-23T06:47:37;12.50;69.50
78779;DHT22;68121;52.404;5.318;2023-05-23T06:50:03;12.50;69.30
78779;DHT22;68121;52.404;5.318;2023-05-23T06:52:29;12.50;68.90
78779;DHT22;68121;52.404;5.318;2023-05-23T06:54:55;12.50;68.50
78779;DHT22;68121;52.404;5.318;2023-05-23T06:57:21;12.60;68.10
78779;DHT22;68121;52.404;5.318;2023-05-23T06:59:48;12.70;67.90
78779;DHT22;68121;52.404;5.318;2023-05-23T07:02:14;12.70;67.60
78779;DHT22;68121;52.404;5.318;2023-05-23T07:04:40;12.80;67.40
78779;DHT22;68121;52.404;5.318;2023-05-23T07:07:06;12.80;67.20
78779;DHT22;68121;52.404;5.318;2023-05-23T07:09:32;12.90;67.10
78779;DHT22;68121;52.404;5.318;2023-05-23T07:11:58;13.00;67.00
78779;DHT22;68121;52.404;5.318;2023-05-23T07:14:24;13.10;66.80
78779;DHT22;68121;52.404;5.318;2023-05-23T07:16:50;13.10;66.80
78779;DHT22;68121;52.404;5.318;2023-05-23T07:19:16;13.10;66.80
78779;DHT22;68121;52.404;5.318;2023-05-23T07:21:42;13.10;66.80
78779;DHT22;68121;52.404;5.318;2023-05-23T07:24:08;13.10;66.80
78779;DHT22;68121;52.404;5.318;2023-05-23T07:26:35;13.10;66.70
78779;DHT22;68121;52.404;5.318;2023-05-23T07:29:01;13.10;66.60
78779;DHT22;68121;52.404;5.318;2023-05-23T07:31:27;13.10;66.50
78779;DHT22;68121;52.404;5.318;2023-05-23T07:33:53;13.10;66.00
78779;DHT22;68121;52.404;5.318;2023-05-23T07:36:19;13.00;65.90
78779;DHT22;68121;52.404;5.318;2023-05-23T07:38:47;13.10;66.10
78779;DHT22;68121;52.404;5.318;2023-05-23T07:41:13;13.10;66.10
78779;DHT22;68121;52.404;5.318;2023-05-23T07:43:39;13.10;66.00
78779;DHT22;68121;52.404;5.318;2023-05-23T07:46:05;13.10;65.90
78779;DHT22;68121;52.404;5.318;2023-05-23T07:48:32;13.20;65.70
78779;DHT22;68121;52.404;5.318;2023-05-23T07:50:58;13.30;65.50
78779;DHT22;68121;52.404;5.318;2023-05-23T07:53:24;13.30;65.40
78779;DHT22;68121;52.404;5.318;2023-05-23T07:55:50;13.50;65.50
78779;DHT22;68121;52.404;5.318;2023-05-23T07:58:16;13.50;65.40
78779;DHT22;68121;52.404;5.318;2023-05-23T08:00:44;13.60;65.10
78779;DHT22;68121;52.404;5.318;2023-05-23T08:03:10;13.60;64.80
78779;DHT22;68121;52.404;5.318;2023-05-23T08:05:36;13.60;64.60
78779;DHT22;68121;52.404;5.318;2023-05-23T08:08:02;13.60;64.40
78779;DHT22;68121;52.404;5.318;2023-05-23T08:10:28;13.70;64.30
78779;DHT22;68121;52.404;5.318;2023-05-23T08:12:54;13.80;64.40
78779;DHT22;68121;52.404;5.318;2023-05-23T08:15:21;13.90;64.20
78779;DHT22;68121;52.404;5.318;2023-05-23T08:17:48;13.90;63.90
78779;DHT22;68121;52.404;5.318;2023-05-23T08:20:15;14.10;63.40
78779;DHT22;68121;52.404;5.318;2023-05-23T08:22:41;14.20;63.20
78779;DHT22;68121;52.404;5.318;2023-05-23T08:25:07;14.30;62.60
78779;DHT22;68121;52.404;5.318;2023-05-23T08:27:33;14.30;62.40
78779;DHT22;68121;52.404;5.318;2023-05-23T08:30:00;14.40;62.20
78779;DHT22;68121;52.404;5.318;2023-05-23T08:32:27;14.40;62.00
78779;DHT22;68121;52.404;5.318;2023-05-23T08:34:53;14.30;62.00
78779;DHT22;68121;52.404;5.318;2023-05-23T08:37:19;14.20;62.20
78779;DHT22;68121;52.404;5.318;2023-05-23T08:39:45;14.20;62.10
78779;DHT22;68121;52.404;5.318;2023-05-23T08:42:12;14.10;61.80
78779;DHT22;68121;52.404;5.318;2023-05-23T08:44:38;14.10;61.70
78779;DHT22;68121;52.404;5.318;2023-05-23T08:47:07;14.20;61.80
78779;DHT22;68121;52.404;5.318;2023-05-23T08:49:33;14.30;61.60
78779;DHT22;68121;52.404;5.318;2023-05-23T08:52:01;14.30;61.60
78779;DHT22;68121;52.404;5.318;2023-05-23T08:54:30;14.30;61.50
78779;DHT22;68121;52.404;5.318;2023-05-23T08:56:58;14.50;61.60
78779;DHT22;68121;52.404;5.318;2023-05-23T08:59:25;14.60;61.70
78779;DHT22;68121;52.404;5.318;2023-05-23T09:01:54;14.60;61.40
78779;DHT22;68121;52.404;5.318;2023-05-23T09:04:20;14.50;61.50
78779;DHT22;68121;52.404;5.318;2023-05-23T09:06:47;14.50;61.60
78779;DHT22;68121;52.404;5.318;2023-05-23T09:09:13;14.50;61.60
78779;DHT22;68121;52.404;5.318;2023-05-23T09:11:39;14.40;61.50
78779;DHT22;68121;52.404;5.318;2023-05-23T09:14:05;14.40;61.40
78779;DHT22;68121;52.404;5.318;2023-05-23T09:16:33;14.30;61.30
78779;DHT22;68121;52.404;5.318;2023-05-23T09:19:09;14.20;61.40
78779;DHT22;68121;52.404;5.318;2023-05-23T09:21:35;14.20;61.50
78779;DHT22;68121;52.404;5.318;2023-05-23T09:24:02;14.20;61.50
78779;DHT22;68121;52.404;5.318;2023-05-23T09:26:28;14.20;61.50
78779;DHT22;68121;52.404;5.318;2023-05-23T09:28:57;14.20;61.70
78779;DHT22;68121;52.404;5.318;2023-05-23T09:31:26;14.30;62.10
78779;DHT22;68121;52.404;5.318;2023-05-23T09:33:54;14.20;62.10
78779;DHT22;68121;52.404;5.318;2023-05-23T09:36:22;14.20;62.10
78779;DHT22;68121;52.404;5.318;2023-05-23T09:38:48;14.10;61.90
78779;DHT22;68121;52.404;5.318;2023-05-23T09:41:19;14.10;61.80
78779;DHT22;68121;52.404;5.318;2023-05-23T09:43:52;14.20;61.60
78779;DHT22;68121;52.404;5.318;2023-05-23T09:46:19;14.40;61.50
78779;DHT22;68121;52.404;5.318;2023-05-23T09:48:50;14.60;61.20
78779;DHT22;68121;52.404;5.318;2023-05-23T09:51:21;15.00;60.70
78779;DHT22;68121;52.404;5.318;2023-05-23T09:53:48;15.00;60.50
78779;DHT22;68121;52.404;5.318;2023-05-23T09:56:15;15.00;60.50
78779;DHT22;68121;52.404;5.318;2023-05-23T09:58:46;14.90;60.40
78779;DHT22;68121;52.404;5.318;2023-05-23T10:01:12;14.80;60.40
78779;DHT22;68121;52.404;5.318;2023-05-23T10:06:16;14.60;60.80
78779;DHT22;68121;52.404;5.318;2023-05-23T10:08:45;14.60;60.80
78779;DHT22;68121;52.404;5.318;2023-05-23T10:13:43;14.60;60.90
78779;DHT22;68121;52.404;5.318;2023-05-23T10:18:48;14.50;60.80
78779;DHT22;68121;52.404;5.318;2023-05-23T10:21:18;14.60;60.70
78779;DHT22;68121;52.404;5.318;2023-05-23T10:23:58;14.70;60.50
78779;DHT22;68121;52.404;5.318;2023-05-23T10:26:26;15.00;59.90
78779;DHT22;68121;52.404;5.318;2023-05-23T10:28:53;15.10;59.60
78779;DHT22;68121;52.404;5.318;2023-05-23T10:31:20;15.20;59.70
78779;DHT22;68121;52.404;5.318;2023-05-23T10:33:53;15.30;59.80
78779;DHT22;68121;52.404;5.318;2023-05-23T10:36:26;15.20;59.70
78779;DHT22;68121;52.404;5.318;2023-05-23T10:39:18;15.20;59.70
78779;DHT22;68121;52.404;5.318;2023-05-23T10:41:47;15.10;59.40
78779;DHT22;68121;52.404;5.318;2023-05-23T10:44:22;15.00;59.50
78779;DHT22;68121;52.404;5.318;2023-05-23T10:47:00;14.90;59.60
78779;DHT22;68121;52.404;5.318;2023-05-23T10:49:37;15.00;59.40
78779;DHT22;68121;52.404;5.318;2023-05-23T10:52:05;15.00;59.10
78779;DHT22;68121;52.404;5.318;2023-05-23T10:54:35;15.00;59.00
78779;DHT22;68121;52.404;5.318;2023-05-23T10:57:04;15.20;59.10
78779;DHT22;68121;52.404;5.318;2023-05-23T10:59:30;15.30;58.90
78779;DHT22;68121;52.404;5.318;2023-05-23T11:01:57;15.40;58.70
78779;DHT22;68121;52.404;5.318;2023-05-23T11:04:26;15.40;58.40
78779;DHT22;68121;52.404;5.318;2023-05-23T11:06:55;15.50;58.30
78779;DHT22;68121;52.404;5.318;2023-05-23T11:09:22;15.50;58.00
78779;DHT22;68121;52.404;5.318;2023-05-23T11:12:02;15.60;57.90
78779;DHT22;68121;52.404;5.318;2023-05-23T11:17:14;15.60;57.70
78779;DHT22;68121;52.404;5.318;2023-05-23T11:20:06;15.50;57.70
78779;DHT22;68121;52.404;5.318;2023-05-23T11:22:34;15.50;57.90
78779;DHT22;68121;52.404;5.318;2023-05-23T11:25:06;15.50;58.00
78779;DHT22;68121;52.404;5.318;2023-05-23T11:27:34;15.80;57.80
78779;DHT22;68121;52.404;5.318;2023-05-23T11:32:32;16.00;57.10
78779;DHT22;68121;52.404;5.318;2023-05-23T11:35:03;15.80;57.10
78779;DHT22;68121;52.404;5.318;2023-05-23T11:37:30;15.60;57.30
78779;DHT22;68121;52.404;5.318;2023-05-23T11:39:57;15.50;57.40
78779;DHT22;68121;52.404;5.318;2023-05-23T11:42:23;15.30;57.30
78779;DHT22;68121;52.404;5.318;2023-05-23T11:44:51;15.30;57.10
78779;DHT22;68121;52.404;5.318;2023-05-23T11:47:17;15.30;57.20
78779;DHT22;68121;52.404;5.318;2023-05-23T11:49:46;15.30;57.20
78779;DHT22;68121;52.404;5.318;2023-05-23T11:52:13;15.30;57.40
78779;DHT22;68121;52.404;5.318;2023-05-23T11:54:40;15.40;57.40
78779;DHT22;68121;52.404;5.318;2023-05-23T11:57:10;15.50;57.50
78779;DHT22;68121;52.404;5.318;2023-05-23T11:59:36;15.60;57.60
78779;DHT22;68121;52.404;5.318;2023-05-23T12:02:05;16.00;57.60
78779;DHT22;68121;52.404;5.318;2023-05-23T12:04:34;16.10;57.20
78779;DHT22;68121;52.404;5.318;2023-05-23T12:07:04;16.10;57.10
78779;DHT22;68121;52.404;5.318;2023-05-23T12:09:31;16.00;57.20
78779;DHT22;68121;52.404;5.318;2023-05-23T12:11:57;15.80;57.30
78779;DHT22;68121;52.404;5.318;2023-05-23T12:14:27;15.70;57.60
78779;DHT22;68121;52.404;5.318;2023-05-23T12:16:53;15.80;57.40
78779;DHT22;68121;52.404;5.318;2023-05-23T12:19:22;15.90;57.30
78779;DHT22;68121;52.404;5.318;2023-05-23T12:21:48;16.20;57.20
78779;DHT22;68121;52.404;5.318;2023-05-23T12:24:21;16.40;56.60
78779;DHT22;68121;52.404;5.318;2023-05-23T12:26:49;16.60;56.10
78779;DHT22;68121;52.404;5.318;2023-05-23T12:29:17;16.80;55.90
78779;DHT22;68121;52.404;5.318;2023-05-23T12:31:43;16.80;55.50
78779;DHT22;68121;52.404;5.318;2023-05-23T12:34:12;16.60;55.50
78779;DHT22;68121;52.404;5.318;2023-05-23T12:36:38;16.40;55.90
78779;DHT22;68121;52.404;5.318;2023-05-23T12:39:07;16.20;56.40
78779;DHT22;68121;52.404;5.318;2023-05-23T12:41:34;16.00;56.70
78779;DHT22;68121;52.404;5.318;2023-05-23T12:44:01;16.10;56.90
78779;DHT22;68121;52.404;5.318;2023-05-23T12:46:27;16.30;56.80
78779;DHT22;68121;52.404;5.318;2023-05-23T12:48:53;16.50;56.20
78779;DHT22;68121;52.404;5.318;2023-05-23T12:51:20;16.60;55.80
78779;DHT22;68121;52.404;5.318;2023-05-23T12:53:46;16.70;55.40
78779;DHT22;68121;52.404;5.318;2023-05-23T12:56:13;16.70;54.80
78779;DHT22;68121;52.404;5.318;2023-05-23T12:58:39;16.60;54.70
78779;DHT22;68121;52.404;5.318;2023-05-23T13:01:05;16.60;54.70
78779;DHT22;68121;52.404;5.318;2023-05-23T13:03:34;16.70;54.50
78779;DHT22;68121;52.404;5.318;2023-05-23T13:06:01;16.80;54.20
78779;DHT22;68121;52.404;5.318;2023-05-23T13:08:27;16.90;54.00
78779;DHT22;68121;52.404;5.318;2023-05-23T13:10:54;16.80;53.80
78779;DHT22;68121;52.404;5.318;2023-05-23T13:13:20;16.50;53.90
78779;DHT22;68121;52.404;5.318;2023-05-23T13:15:47;16.40;54.10
78779;DHT22;68121;52.404;5.318;2023-05-23T13:18:13;16.40;54.00
78779;DHT22;68121;52.404;5.318;2023-05-23T13:20:39;16.50;53.70
78779;DHT22;68121;52.404;5.318;2023-05-23T13:23:07;16.50;53.80
78779;DHT22;68121;52.404;5.318;2023-05-23T13:25:34;16.60;53.90
78779;DHT22;68121;52.404;5.318;2023-05-23T13:28:00;16.50;53.90
78779;DHT22;68121;52.404;5.318;2023-05-23T13:30:27;16.40;54.30
78779;DHT22;68121;52.404;5.318;2023-05-23T13:32:54;16.40;54.70
78779;DHT22;68121;52.404;5.318;2023-05-23T13:35:20;16.50;54.60
78779;DHT22;68121;52.404;5.318;2023-05-23T13:37:46;16.40;54.60
78779;DHT22;68121;52.404;5.318;2023-05-23T13:40:16;16.40;54.50
78779;DHT22;68121;52.404;5.318;2023-05-23T13:42:47;16.40;54.20
78779;DHT22;68121;52.404;5.318;2023-05-23T13:45:14;16.50;54.00
78779;DHT22;68121;52.404;5.318;2023-05-23T13:47:40;16.40;54.00
78779;DHT22;68121;52.404;5.318;2023-05-23T13:50:07;16.30;54.20
78779;DHT22;68121;52.404;5.318;2023-05-23T13:52:33;16.00;54.60
78779;DHT22;68121;52.404;5.318;2023-05-23T13:54:59;16.00;55.00
78779;DHT22;68121;52.404;5.318;2023-05-23T13:57:26;16.00;55.10
78779;DHT22;68121;52.404;5.318;2023-05-23T13:59:52;16.10;55.00
78779;DHT22;68121;52.404;5.318;2023-05-23T14:02:18;16.20;55.00
78779;DHT22;68121;52.404;5.318;2023-05-23T14:04:44;16.40;55.00
78779;DHT22;68121;52.404;5.318;2023-05-23T14:07:10;16.50;54.60
78779;DHT22;68121;52.404;5.318;2023-05-23T14:09:36;16.40;54.20
78779;DHT22;68121;52.404;5.318;2023-05-23T14:12:03;16.40;53.90
78779;DHT22;68121;52.404;5.318;2023-05-23T14:14:30;16.40;53.80
78779;DHT22;68121;52.404;5.318;2023-05-23T14:16:56;16.40;53.90
78779;DHT22;68121;52.404;5.318;2023-05-23T14:19:22;16.30;53.70
78779;DHT22;68121;52.404;5.318;2023-05-23T14:21:48;16.20;53.90
78779;DHT22;68121;52.404;5.318;2023-05-23T14:24:14;16.20;54.00
78779;DHT22;68121;52.404;5.318;2023-05-23T14:26:40;16.00;54.00
78779;DHT22;68121;52.404;5.318;2023-05-23T14:29:06;15.80;54.20
78779;DHT22;68121;52.404;5.318;2023-05-23T14:31:32;15.70;53.90
78779;DHT22;68121;52.404;5.318;2023-05-23T14:33:58;15.60;53.30
78779;DHT22;68121;52.404;5.318;2023-05-23T14:36:27;15.60;53.20
78779;DHT22;68121;52.404;5.318;2023-05-23T14:38:53;15.60;53.10
78779;DHT22;68121;52.404;5.318;2023-05-23T14:41:19;15.50;52.90
78779;DHT22;68121;52.404;5.318;2023-05-23T14:43:46;15.50;52.90
78779;DHT22;68121;52.404;5.318;2023-05-23T14:46:12;15.50;52.90
78779;DHT22;68121;52.404;5.318;2023-05-23T14:48:40;15.60;52.70
78779;DHT22;68121;52.404;5.318;2023-05-23T14:51:07;15.60;52.70
78779;DHT22;68121;52.404;5.318;2023-05-23T14:53:33;15.50;53.30
78779;DHT22;68121;52.404;5.318;2023-05-23T14:55:59;15.60;53.70
78779;DHT22;68121;52.404;5.318;2023-05-23T14:58:25;15.50;53.90
78779;DHT22;68121;52.404;5.318;2023-05-23T15:00:51;15.40;54.00
78779;DHT22;68121;52.404;5.318;2023-05-23T15:03:17;15.30;54.20
78779;DHT22;68121;52.404;5.318;2023-05-23T15:05:44;15.20;54.20
78779;DHT22;68121;52.404;5.318;2023-05-23T15:08:11;15.20;54.30
78779;DHT22;68121;52.404;5.318;2023-05-23T15:10:37;15.10;54.40
78779;DHT22;68121;52.404;5.318;2023-05-23T15:13:03;15.10;54.10
78779;DHT22;68121;52.404;5.318;2023-05-23T15:15:29;15.00;54.00
78779;DHT22;68121;52.404;5.318;2023-05-23T15:18:05;15.00;53.90
78779;DHT22;68121;52.404;5.318;2023-05-23T15:20:34;15.00;53.70
78779;DHT22;68121;52.404;5.318;2023-05-23T15:23:04;14.90;53.70
78779;DHT22;68121;52.404;5.318;2023-05-23T15:25:30;15.00;53.60
78779;DHT22;68121;52.404;5.318;2023-05-23T15:27:56;15.00;53.50
78779;DHT22;68121;52.404;5.318;2023-05-23T15:30:23;14.90;53.80
78779;DHT22;68121;52.404;5.318;2023-05-23T15:32:49;14.80;54.20
78779;DHT22;68121;52.404;5.318;2023-05-23T15:35:15;14.80;54.50
78779;DHT22;68121;52.404;5.318;2023-05-23T15:37:41;14.80;54.50
78779;DHT22;68121;52.404;5.318;2023-05-23T15:40:08;14.70;54.30
78779;DHT22;68121;52.404;5.318;2023-05-23T15:42:34;14.60;54.10
78779;DHT22;68121;52.404;5.318;2023-05-23T15:45:01;14.50;54.30
78779;DHT22;68121;52.404;5.318;2023-05-23T15:47:27;14.50;54.50